createdAt,value
2023-05-09T00:01:34.896Z,97341.03
2023-05-09T00:04:05.945Z,97336.94
2023-05-09T00:06:36.596Z,97336.22
2023-05-09T00:09:07.631Z,97340.81
2023-05-09T00:11:38.384Z,97343.91
2023-05-09T00:14:12.705Z,97336.31
2023-05-09T00:16:43.472Z,97340.25
2023-05-09T00:19:14.510Z,97339.81
2023-05-09T00:21:45.203Z,97342.09
2023-05-09T00:24:16.189Z,97338.50
2023-05-09T00:26:46.946Z,97336.59
2023-05-09T00:29:20.306Z,97337.34
2023-05-09T00:31:51.061Z,97333.75
2023-05-09T00:34:22.778Z,97339.22
2023-05-09T00:36:53.534Z,97339.31
2023-05-09T00:39:24.697Z,97332.22
2023-05-09T00:41:56.024Z,97333.53
2023-05-09T00:44:29.832Z,97342.84
2023-05-09T00:47:00.513Z,97337.09
2023-05-09T00:49:31.517Z,97338.22
2023-05-09T00:52:02.503Z,97334.72
2023-05-09T00:54:33.535Z,97338.47
2023-05-09T00:57:04.426Z,97340.81
2023-05-09T00:59:38.024Z,97344.94
2023-05-09T01:02:08.789Z,97342.94
2023-05-09T01:04:39.932Z,97345.38
2023-05-09T01:07:17.267Z,97346.06
2023-05-09T01:09:54.068Z,97337.19
2023-05-09T01:12:31.278Z,97340.88
2023-05-09T01:15:12.221Z,97342.28
2023-05-09T01:17:53.088Z,97342.28
2023-05-09T01:20:34.129Z,97343.09
2023-05-09T01:23:23.617Z,97347.63
2023-05-09T01:26:04.096Z,97344.31
2023-05-09T01:29:06.611Z,97351.31
2023-05-09T01:31:44.141Z,97338.69
2023-05-09T01:34:17.501Z,97346.50
2023-05-09T01:36:52.698Z,97351.03
2023-05-09T01:39:25.061Z,97350.38
2023-05-09T01:41:58.584Z,97347.53
2023-05-09T01:44:32.818Z,97349.38
2023-05-09T01:47:08.161Z,97351.22
2023-05-09T01:49:40.987Z,97346.88
2023-05-09T01:52:14.628Z,97342.53
2023-05-09T01:54:46.287Z,97336.38
2023-05-09T01:57:18.541Z,97347.06
2023-05-09T01:59:51.321Z,97340.06
2023-05-09T02:02:25.430Z,97344.56
2023-05-09T02:04:59.140Z,97349.09
2023-05-09T02:07:32.554Z,97342.94
2023-05-09T02:10:05.474Z,97346.63
2023-05-09T02:12:38.486Z,97344.13
2023-05-09T02:15:11.078Z,97348.44
2023-05-09T02:17:48.008Z,97347.78
2023-05-09T02:20:19.311Z,97341.81
2023-05-09T02:22:51.008Z,97333.53
2023-05-09T02:25:21.781Z,97335.84
2023-05-09T02:27:53.291Z,97341.53
2023-05-09T02:30:27.427Z,97343.56
2023-05-09T02:33:06.710Z,97346.44
2023-05-09T02:35:38.512Z,97343.94
2023-05-09T02:38:10.495Z,97352.94
2023-05-09T02:40:42.317Z,97354.78
2023-05-09T02:43:13.388Z,97357.66
2023-05-09T02:45:44.237Z,97358.66
2023-05-09T02:48:17.747Z,97360.66
2023-05-09T02:50:48.669Z,97358.38
2023-05-09T02:53:19.585Z,97345.28
2023-05-09T02:55:50.797Z,97361.41
2023-05-09T02:58:21.684Z,97364.25
2023-05-09T03:00:52.390Z,97364.44
2023-05-09T03:03:26.271Z,97361.78
2023-05-09T03:05:57.172Z,97367.09
2023-05-09T03:08:28.049Z,97367.09
2023-05-09T03:10:59.058Z,97372.44
2023-05-09T03:13:29.937Z,97375.13
2023-05-09T03:16:02.344Z,97375.97
2023-05-09T03:18:35.847Z,97378.63
2023-05-09T03:21:06.699Z,97378.63
2023-05-09T03:23:40.014Z,97390.13
2023-05-09T03:26:10.671Z,97383.97
2023-05-09T03:28:41.634Z,97395.47
2023-05-09T03:31:12.810Z,97393.81
2023-05-09T03:33:46.345Z,97397.50
2023-05-09T03:36:18.765Z,97401.81
2023-05-09T03:38:49.569Z,97401.81
2023-05-09T03:41:24.468Z,97407.16
2023-05-09T03:43:55.259Z,97394.19
2023-05-09T03:46:26.099Z,97402.00
2023-05-09T03:48:59.520Z,97408.19
2023-05-09T03:51:30.359Z,97411.88
2023-05-09T03:54:01.441Z,97414.53
2023-05-09T03:56:33.201Z,97408.34
2023-05-09T03:59:04.032Z,97408.91
2023-05-09T04:01:38.258Z,97414.53
2023-05-09T04:04:13.769Z,97426.88
2023-05-09T04:06:44.696Z,97413.53
2023-05-09T04:09:16.085Z,97415.56
2023-05-09T04:11:46.978Z,97421.88
2023-05-09T04:14:19.344Z,97417.72
2023-05-09T04:16:50.212Z,97429.25
2023-05-09T04:19:23.671Z,97429.59
2023-05-09T04:21:54.421Z,97426.94
2023-05-09T04:24:25.398Z,97427.78
2023-05-09T04:26:56.196Z,97425.28
2023-05-09T04:29:29.844Z,97422.63
2023-05-09T04:32:01.947Z,97424.25
2023-05-09T04:34:36.031Z,97430.63
2023-05-09T04:37:13.648Z,97428.97
2023-05-09T04:39:45.501Z,97430.78
2023-05-09T04:42:23.241Z,97427.28
2023-05-09T04:44:54.030Z,97427.66
2023-05-09T04:47:26.279Z,97441.19
2023-05-09T04:49:59.857Z,97436.38
2023-05-09T04:52:30.783Z,97440.06
2023-05-09T04:55:01.818Z,97443.91
2023-05-09T04:57:37.410Z,97449.59
2023-05-09T05:00:14.253Z,97445.63
2023-05-09T05:02:45.330Z,97451.50
2023-05-09T05:05:25.094Z,97442.53
2023-05-09T05:07:57.506Z,97450.25
2023-05-09T05:10:33.797Z,97449.31
2023-05-09T05:13:09.960Z,97439.47
2023-05-09T05:15:45.630Z,97458.19
2023-05-09T05:18:17.603Z,97455.56
2023-05-09T05:20:50.949Z,97457.09
2023-05-09T05:23:22.081Z,97454.94
2023-05-09T05:25:56.662Z,97456.28
2023-05-09T05:28:27.530Z,97459.66
2023-05-09T05:30:58.580Z,97456.50
2023-05-09T05:33:29.319Z,97457.84
2023-05-09T05:36:03.409Z,97457.16
2023-05-09T05:38:34.229Z,97454.03
2023-05-09T05:41:05.158Z,97458.88
2023-05-09T05:43:37.045Z,97461.88
2023-05-09T05:46:08.511Z,97459.53
2023-05-09T05:48:39.414Z,97470.56
2023-05-09T05:51:13.007Z,97470.25
2023-05-09T05:53:45.397Z,97466.91
2023-05-09T05:56:16.150Z,97473.25
2023-05-09T05:58:47.405Z,97473.56
2023-05-09T06:01:18.478Z,97476.91
2023-05-09T06:03:54.939Z,97475.06
2023-05-09T06:06:31.490Z,97474.91
2023-05-09T06:09:02.219Z,97471.91
2023-05-09T06:11:33.049Z,97475.06
2023-05-09T06:14:03.957Z,97477.22
2023-05-09T06:16:34.940Z,97475.19
2023-05-09T06:19:05.697Z,97474.03
2023-05-09T06:21:39.281Z,97473.88
2023-05-09T06:24:19.849Z,97475.50
2023-05-09T06:26:54.757Z,97478.19
2023-05-09T06:29:25.470Z,97481.84
2023-05-09T06:31:56.231Z,97483.19
2023-05-09T06:34:27.213Z,97484.03
2023-05-09T06:37:00.646Z,97480.19
2023-05-09T06:39:31.323Z,97479.97
2023-05-09T06:42:02.129Z,97470.84
2023-05-09T06:44:41.525Z,97475.31
2023-05-09T06:47:12.317Z,97475.97
2023-05-09T06:49:43.087Z,97480.50
2023-05-09T06:52:16.769Z,97472.31
2023-05-09T06:54:47.513Z,97472.50
2023-05-09T06:57:18.518Z,97476.81
2023-05-09T06:59:49.248Z,97475.50
2023-05-09T07:02:19.988Z,97475.84
2023-05-09T07:04:50.889Z,97476.84
2023-05-09T07:07:24.558Z,97473.53
2023-05-09T07:10:03.886Z,97481.53
2023-05-09T07:12:41.019Z,97483.19
2023-05-09T07:15:13.568Z,97487.19
2023-05-09T07:17:45.436Z,97490.88
2023-05-09T07:20:16.332Z,97487.53
2023-05-09T07:22:52.364Z,97488.53
2023-05-09T07:25:23.232Z,97494.88
2023-05-09T07:27:54.021Z,97495.69
2023-05-09T07:30:25.475Z,97489.53
2023-05-09T07:32:56.495Z,97490.56
2023-05-09T07:35:27.279Z,97496.84
2023-05-09T07:38:00.621Z,97495.03
2023-05-09T07:40:31.297Z,97500.53
2023-05-09T07:43:02.169Z,97502.38
2023-05-09T07:45:32.952Z,97498.19
2023-05-09T07:48:03.990Z,97507.19
2023-05-09T07:50:34.835Z,97501.22
2023-05-09T07:53:08.298Z,97510.22
2023-05-09T07:55:38.963Z,97501.56
2023-05-09T07:58:09.695Z,97503.56
2023-05-09T08:00:40.320Z,97503.91
2023-05-09T08:03:11.382Z,97506.25
2023-05-09T08:05:42.646Z,97511.06
2023-05-09T08:08:16.116Z,97508.59
2023-05-09T08:10:47.321Z,97515.91
2023-05-09T08:13:19.335Z,97509.59
2023-05-09T08:15:50.138Z,97518.22
2023-05-09T08:18:21.317Z,97520.25
2023-05-09T08:20:52.551Z,97523.22
2023-05-09T08:23:26.126Z,97514.91
2023-05-09T08:25:57.491Z,97515.25
2023-05-09T08:28:28.925Z,97521.91
2023-05-09T08:30:59.881Z,97527.53
2023-05-09T08:33:30.893Z,97516.41
2023-05-09T08:36:02.047Z,97520.41
2023-05-09T08:38:36.712Z,97520.06
2023-05-09T08:41:07.555Z,97520.22
2023-05-09T08:43:38.687Z,97516.91
2023-05-09T08:46:11.445Z,97530.22
2023-05-09T08:48:43.044Z,97534.53
2023-05-09T08:51:14.401Z,97529.22
2023-05-09T08:53:48.055Z,97527.22
2023-05-09T08:56:18.938Z,97523.56
2023-05-09T08:58:49.914Z,97524.38
2023-05-09T09:01:22.462Z,97522.41
2023-05-09T09:03:54.687Z,97532.22
2023-05-09T09:06:26.573Z,97531.88
2023-05-09T09:09:02.106Z,97524.22
2023-05-09T09:11:33.974Z,97532.22
2023-05-09T09:14:06.554Z,97534.22
2023-05-09T09:16:39.941Z,97534.38
2023-05-09T09:19:15.177Z,97533.69
2023-05-09T09:21:48.132Z,97534.53
2023-05-09T09:24:26.093Z,97536.19
2023-05-09T09:26:56.899Z,97538.03
2023-05-09T09:29:29.105Z,97538.19
2023-05-09T09:31:59.859Z,97540.19
2023-05-09T09:34:30.679Z,97537.69
2023-05-09T09:37:01.871Z,97526.03
2023-05-09T09:39:35.346Z,97532.72
2023-05-09T09:42:15.875Z,97538.84
2023-05-09T09:44:46.513Z,97543.34
2023-05-09T09:47:17.282Z,97540.53
2023-05-09T09:49:50.114Z,97536.19
2023-05-09T09:52:27.361Z,97532.88
2023-05-09T09:55:03.588Z,97544.03
2023-05-09T09:57:40.198Z,97544.53
2023-05-09T10:00:12.052Z,97543.34
2023-05-09T10:02:51.418Z,97540.88
2023-05-09T10:05:23.807Z,97541.22
2023-05-09T10:07:58.033Z,97538.56
2023-05-09T10:10:35.786Z,97541.88
2023-05-09T10:13:09.745Z,97543.19
2023-05-09T10:15:52.129Z,97541.22
2023-05-09T10:18:29.160Z,97546.56
2023-05-09T10:21:03.921Z,97549.38
2023-05-09T10:23:38.261Z,97548.84
2023-05-09T10:26:20.494Z,97548.84
2023-05-09T10:28:52.952Z,97547.03
2023-05-09T10:31:29.267Z,97550.53
2023-05-09T10:34:04.957Z,97552.84
2023-05-09T10:36:35.785Z,97548.84
2023-05-09T10:39:06.735Z,97552.84
2023-05-09T10:41:42.047Z,97544.22
2023-05-09T10:44:13.610Z,97551.53
2023-05-09T10:46:45.014Z,97557.53
2023-05-09T10:49:16.471Z,97557.00
2023-05-09T10:51:47.308Z,97559.84
2023-05-09T10:54:30.725Z,97542.22
2023-05-09T10:57:05.957Z,97550.84
2023-05-09T10:59:41.309Z,97552.34
2023-05-09T11:02:16.032Z,97539.03
2023-05-09T11:04:48.069Z,97548.88
2023-05-09T11:07:30.480Z,97549.53
2023-05-09T11:10:11.849Z,97548.03
2023-05-09T11:13:02.410Z,97553.50
2023-05-09T11:15:33.543Z,97553.69
2023-05-09T11:18:09.996Z,97550.84
2023-05-09T11:20:47.166Z,97556.69
2023-05-09T11:23:20.414Z,97552.69
2023-05-09T11:25:52.320Z,97552.88
2023-05-09T11:28:33.533Z,97540.50
2023-05-09T11:31:14.689Z,97550.84
2023-05-09T11:33:48.125Z,97553.19
2023-05-09T11:36:20.770Z,97538.00
2023-05-09T11:38:51.851Z,97548.47
2023-05-09T11:41:26.006Z,97551.47
2023-05-09T11:44:00.635Z,97555.28
2023-05-09T11:46:31.654Z,97547.59
2023-05-09T11:49:02.412Z,97551.44
2023-05-09T11:51:33.244Z,97532.78
2023-05-09T11:54:04.196Z,97553.41
2023-05-09T11:56:35.467Z,97560.09
2023-05-09T11:59:10.900Z,97556.78
2023-05-09T12:01:44.187Z,97557.09
2023-05-09T12:04:15.137Z,97554.44
2023-05-09T12:06:50.720Z,97555.28
2023-05-09T12:09:21.308Z,97554.25
2023-05-09T12:11:52.310Z,97554.09
2023-05-09T12:14:37.908Z,97547.94
2023-05-09T12:17:08.564Z,97545.09
2023-05-09T12:19:39.969Z,97538.59
2023-05-09T12:22:10.781Z,97545.41
2023-05-09T12:24:41.667Z,97539.72
2023-05-09T12:27:12.627Z,97538.72
2023-05-09T12:29:46.446Z,97530.38
2023-05-09T12:32:18.683Z,97530.22
2023-05-09T12:34:49.498Z,97521.38
2023-05-09T12:37:21.855Z,97520.53
2023-05-09T12:40:05.200Z,97514.38
2023-05-09T12:42:38.520Z,97515.34
2023-05-09T12:45:14.952Z,97523.03
2023-05-09T12:47:46.229Z,97512.69
2023-05-09T12:50:17.022Z,97515.19
2023-05-09T12:53:02.527Z,97518.03
2023-05-09T12:55:34.562Z,97514.38
2023-05-09T12:58:06.410Z,97510.03
2023-05-09T13:00:48.616Z,97505.72
2023-05-09T13:03:26.969Z,97507.06
2023-05-09T13:05:58.495Z,97512.75
2023-05-09T13:08:30.008Z,97514.75
2023-05-09T13:11:15.002Z,97514.75
2023-05-09T13:13:47.293Z,97514.56
2023-05-09T13:16:21.031Z,97515.41
2023-05-09T13:18:52.030Z,97516.59
2023-05-09T13:21:22.733Z,97511.44
2023-05-09T13:23:53.617Z,97507.91
2023-05-09T13:26:24.473Z,97510.75
2023-05-09T13:28:55.252Z,97517.44
2023-05-09T13:31:28.690Z,97506.13
2023-05-09T13:33:59.509Z,97503.63
2023-05-09T13:36:30.434Z,97503.78
2023-05-09T13:39:01.181Z,97513.66
2023-05-09T13:41:35.337Z,97514.44
2023-05-09T13:44:08.160Z,97510.13
2023-05-09T13:46:41.811Z,97504.81
2023-05-09T13:49:12.737Z,97501.13
2023-05-09T13:51:43.428Z,97508.94
2023-05-09T13:54:17.699Z,97507.13
2023-05-09T13:56:48.795Z,97500.78
2023-05-09T13:59:19.639Z,97505.97
2023-05-09T14:01:53.006Z,97502.44
2023-05-09T14:04:23.872Z,97503.47
2023-05-09T14:06:55.266Z,97508.13
2023-05-09T14:09:29.437Z,97509.81
2023-05-09T14:12:00.244Z,97515.13
2023-05-09T14:14:31.057Z,97506.78
2023-05-09T14:17:04.840Z,97504.66
2023-05-09T14:19:35.804Z,97509.50
2023-05-09T14:22:06.449Z,97510.69
2023-05-09T14:24:37.316Z,97508.19
2023-05-09T14:27:08.015Z,97510.16
2023-05-09T14:29:41.427Z,97505.00
2023-05-09T14:32:15.025Z,97505.84
2023-05-09T14:34:46.029Z,97506.84
2023-05-09T14:37:16.862Z,97495.34
2023-05-09T14:39:49.750Z,97505.19
2023-05-09T14:42:20.496Z,97503.50
2023-05-09T14:44:51.379Z,97500.03
2023-05-09T14:47:24.799Z,97499.88
2023-05-09T14:49:56.360Z,97501.53
2023-05-09T14:52:27.050Z,97501.34
2023-05-09T14:55:00.083Z,97504.50
2023-05-09T14:57:30.867Z,97502.50
2023-05-09T15:00:12.508Z,97502.16
2023-05-09T15:02:53.507Z,97499.50
2023-05-09T15:05:24.512Z,97496.50
2023-05-09T15:07:55.176Z,97491.97
2023-05-09T15:10:27.921Z,97496.31
2023-05-09T15:12:58.646Z,97493.66
2023-05-09T15:15:29.407Z,97482.16
2023-05-09T15:18:02.950Z,97483.00
2023-05-09T15:20:33.796Z,97484.81
2023-05-09T15:23:04.433Z,97484.16
2023-05-09T15:25:35.337Z,97479.81
2023-05-09T15:28:07.261Z,97481.50
2023-05-09T15:30:41.353Z,97478.16
2023-05-09T15:33:14.805Z,97473.50
2023-05-09T15:35:45.934Z,97479.66
2023-05-09T15:38:16.966Z,97483.16
2023-05-09T15:40:48.176Z,97480.50
2023-05-09T15:43:19.163Z,97473.50
2023-05-09T15:45:51.618Z,97469.84
2023-05-09T15:48:25.294Z,97452.53
2023-05-09T15:50:56.405Z,97476.34
2023-05-09T15:53:28.039Z,97471.81
2023-05-09T15:55:59.057Z,97465.50
2023-05-09T15:58:29.918Z,97462.84
2023-05-09T16:01:00.734Z,97481.50
2023-05-09T16:03:34.157Z,97476.97
2023-05-09T16:06:05.502Z,97474.31
2023-05-09T16:08:36.276Z,97476.81
2023-05-09T16:11:07.672Z,97469.66
2023-05-09T16:13:38.280Z,97467.00
2023-05-09T16:16:09.577Z,97473.13
2023-05-09T16:18:42.920Z,97473.00
2023-05-09T16:21:13.920Z,97480.63
2023-05-09T16:23:44.798Z,97491.25
2023-05-09T16:26:15.778Z,97482.44
2023-05-09T16:28:46.568Z,97478.06
2023-05-09T16:31:17.464Z,97488.06
2023-05-09T16:33:51.053Z,97482.69
2023-05-09T16:36:22.366Z,97485.69
2023-05-09T16:38:53.236Z,97490.31
2023-05-09T16:41:24.008Z,97487.81
2023-05-09T16:43:54.786Z,97489.97
2023-05-09T16:46:25.634Z,97491.19
2023-05-09T16:48:58.990Z,97486.13
2023-05-09T16:51:29.753Z,97495.00
2023-05-09T16:54:00.683Z,97488.41
2023-05-09T16:56:31.519Z,97481.81
2023-05-09T16:59:02.296Z,97478.84
2023-05-09T17:01:33.632Z,97484.06
2023-05-09T17:04:07.161Z,97488.41
2023-05-09T17:06:38.165Z,97483.94
2023-05-09T17:09:09.210Z,97490.94
2023-05-09T17:11:40.179Z,97491.91
2023-05-09T17:14:11.077Z,97488.44
2023-05-09T17:16:43.211Z,97493.91
2023-05-09T17:19:16.967Z,97485.13
2023-05-09T17:21:47.599Z,97483.13
2023-05-09T17:24:18.385Z,97490.25
2023-05-09T17:26:50.512Z,97495.25
2023-05-09T17:29:21.345Z,97493.09
2023-05-09T17:31:52.403Z,97494.59
2023-05-09T17:34:25.957Z,97488.13
2023-05-09T17:36:56.798Z,97489.41
2023-05-09T17:39:28.831Z,97491.75
2023-05-09T17:41:59.649Z,97493.09
2023-05-09T17:44:30.557Z,97487.97
2023-05-09T17:47:01.507Z,97492.59
2023-05-09T17:49:34.932Z,97500.94
2023-05-09T17:52:05.735Z,97497.25
2023-05-09T17:54:36.732Z,97495.59
2023-05-09T17:57:07.788Z,97501.91
2023-05-09T17:59:40.768Z,97505.56
2023-05-09T18:02:11.598Z,97504.69
2023-05-09T18:04:46.649Z,97501.88
2023-05-09T18:07:17.391Z,97502.53
2023-05-09T18:09:48.289Z,97506.53
2023-05-09T18:12:19.164Z,97511.84
2023-05-09T18:14:50.005Z,97503.69
2023-05-09T18:17:20.854Z,97510.19
2023-05-09T18:19:54.310Z,97511.53
2023-05-09T18:22:25.602Z,97513.19
2023-05-09T18:24:56.583Z,97513.53
2023-05-09T18:27:27.875Z,97511.50
2023-05-09T18:29:58.664Z,97517.97
2023-05-09T18:32:30.258Z,97527.53
2023-05-09T18:35:04.412Z,97523.72
2023-05-09T18:37:35.976Z,97514.34
2023-05-09T18:40:07.357Z,97520.03
2023-05-09T18:42:38.027Z,97519.38
2023-05-09T18:45:10.279Z,97523.25
2023-05-09T18:47:41.491Z,97518.22
2023-05-09T18:50:16.654Z,97530.19
2023-05-09T18:52:47.557Z,97527.63
2023-05-09T18:55:20.047Z,97527.84
2023-05-09T18:57:51.001Z,97523.13
2023-05-09T19:00:21.971Z,97521.72
2023-05-09T19:02:52.936Z,97521.41
2023-05-09T19:05:27.719Z,97523.13
2023-05-09T19:07:58.579Z,97503.19
2023-05-09T19:10:29.558Z,97527.19
2023-05-09T19:13:00.369Z,97516.50
2023-05-09T19:15:31.167Z,97518.22
2023-05-09T19:18:02.038Z,97519.72
2023-05-09T19:20:35.573Z,97517.94
2023-05-09T19:23:06.236Z,97515.97
2023-05-09T19:25:38.015Z,97517.81
2023-05-09T19:28:08.909Z,97519.47
2023-05-09T19:30:39.734Z,97523.06
2023-05-09T19:33:10.527Z,97519.09
2023-05-09T19:35:44.640Z,97513.50
2023-05-09T19:38:15.379Z,97514.41
2023-05-09T19:40:46.290Z,97517.75
2023-05-09T19:43:17.028Z,97520.84
2023-05-09T19:45:47.782Z,97504.00
2023-05-09T19:48:18.535Z,97512.13
2023-05-09T19:50:52.107Z,97501.59
2023-05-09T19:53:22.888Z,97501.97
2023-05-09T19:55:53.791Z,97506.06
2023-05-09T19:58:24.586Z,97505.97
2023-05-09T20:00:55.390Z,97510.59
2023-05-09T20:03:26.325Z,97508.34
2023-05-09T20:05:59.892Z,97511.44
2023-05-09T20:08:31.460Z,97510.31
2023-05-09T20:11:02.432Z,97505.56
2023-05-09T20:13:33.210Z,97502.63
2023-05-09T20:16:04.585Z,97500.84
2023-05-09T20:18:35.892Z,97502.72
2023-05-09T20:21:10.718Z,97499.25
2023-05-09T20:23:41.450Z,97497.78
2023-05-09T20:26:12.176Z,97506.59
2023-05-09T20:28:42.838Z,97498.13
2023-05-09T20:31:13.669Z,97498.69
2023-05-09T20:33:44.403Z,97502.38
2023-05-09T20:36:17.822Z,97496.53
2023-05-09T20:38:48.454Z,97497.88
2023-05-09T20:41:19.200Z,97494.75
2023-05-09T20:43:49.884Z,97493.41
2023-05-09T20:46:20.791Z,97492.09
2023-05-09T20:48:51.650Z,97487.28
2023-05-09T20:51:25.146Z,97494.22
2023-05-09T20:53:56.005Z,97484.91
2023-05-09T20:56:28.896Z,97484.56
2023-05-09T20:59:01.217Z,97489.38
2023-05-09T21:01:35.753Z,97476.34
2023-05-09T21:04:08.591Z,97486.47
2023-05-09T21:06:41.998Z,97486.41
2023-05-09T21:09:12.949Z,97482.75
2023-05-09T21:11:43.923Z,97481.63
2023-05-09T21:14:14.966Z,97481.66
2023-05-09T21:16:47.007Z,97479.56
2023-05-09T21:19:17.759Z,97478.50
2023-05-09T21:21:51.193Z,97483.13
2023-05-09T21:24:21.920Z,97479.63
2023-05-09T21:26:52.662Z,97484.41
2023-05-09T21:29:23.673Z,97486.50
2023-05-09T21:31:54.426Z,97477.88
2023-05-09T21:34:25.151Z,97477.72
2023-05-09T21:36:58.485Z,97474.16
2023-05-09T21:39:29.180Z,97469.97
2023-05-09T21:42:00.530Z,97465.63
2023-05-09T21:44:31.259Z,97465.91
2023-05-09T21:47:02.193Z,97464.66
2023-05-09T21:49:32.948Z,97469.69
2023-05-09T21:52:06.657Z,97462.63
2023-05-09T21:54:37.407Z,97467.97
2023-05-09T21:57:08.786Z,97460.03
2023-05-09T21:59:40.099Z,97467.72
2023-05-09T22:02:10.976Z,97460.59
2023-05-09T22:04:42.099Z,97457.97
2023-05-09T22:07:16.054Z,97460.66
2023-05-09T22:09:46.851Z,97458.19
2023-05-09T22:12:17.715Z,97456.56
2023-05-09T22:14:55.677Z,97457.91
2023-05-09T22:17:27.219Z,97456.25
2023-05-09T22:19:57.916Z,97461.13
2023-05-09T22:22:32.252Z,97460.63
2023-05-09T22:25:03.185Z,97460.13
2023-05-09T22:27:35.057Z,97460.63
2023-05-09T22:30:05.951Z,97456.66
2023-05-09T22:32:37.345Z,97451.31
2023-05-09T22:35:09.072Z,97452.00
2023-05-09T22:37:44.394Z,97449.34
2023-05-09T22:40:16.807Z,97447.34
2023-05-09T22:42:47.873Z,97445.34
2023-05-09T22:45:18.700Z,97432.03
2023-05-09T22:47:49.588Z,97433.56
2023-05-09T22:50:20.686Z,97424.56
2023-05-09T22:52:54.189Z,97424.41
2023-05-09T22:55:25.106Z,97420.72
2023-05-09T22:57:55.953Z,97425.03
2023-05-09T23:00:26.668Z,97420.22
2023-05-09T23:02:57.555Z,97419.34
2023-05-09T23:05:28.458Z,97420.50
2023-05-09T23:08:02.040Z,97417.31
2023-05-09T23:10:32.989Z,97420.78
2023-05-09T23:13:05.031Z,97424.59
2023-05-09T23:15:36.264Z,97423.56
2023-05-09T23:18:07.616Z,97414.94
2023-05-09T23:20:39.306Z,97414.44
2023-05-09T23:23:12.716Z,97399.28
2023-05-09T23:25:44.693Z,97412.59
2023-05-09T23:28:15.522Z,97411.44
2023-05-09T23:30:46.256Z,97407.97
2023-05-09T23:33:17.173Z,97408.63
2023-05-09T23:35:48.010Z,97413.28
2023-05-09T23:38:22.902Z,97404.97
2023-05-09T23:40:53.713Z,97399.16
2023-05-09T23:43:24.413Z,97387.69
2023-05-09T23:45:56.237Z,97380.66
2023-05-09T23:48:27.199Z,97369.19
2023-05-09T23:50:57.900Z,97376.84
2023-05-09T23:53:31.639Z,97373.88
2023-05-09T23:56:02.626Z,97380.00
2023-05-09T23:58:33.419Z,97381.66
